sensor_id;sensor_type;location;lat;lon;timestamp;P1;P2;P0
37290;PMS5003;23175;-33.706;151.094;2022-08-03T00:01:41;2;2;
37290;PMS5003;23175;-33.706;151.094;2022-08-03T00:04:11;0;0;
37290;PMS5003;23175;-33.706;151.094;2022-08-03T00:06:42;2;2;
37290;PMS5003;23175;-33.706;151.094;2022-08-03T00:09:12;3;2;
37290;PMS5003;23175;-33.706;151.094;2022-08-03T00:11:42;1;1;
37290;PMS5003;23175;-33.706;151.094;2022-08-03T00:14:13;1;1;
37290;PMS5003;23175;-33.706;151.094;2022-08-03T00:16:43;2;1;
37290;PMS5003;23175;-33.706;151.094;2022-08-03T00:19:15;1;1;
37290;PMS5003;23175;-33.706;151.094;2022-08-03T00:21:45;2;2;
37290;PMS5003;23175;-33.706;151.094;2022-08-03T00:24:16;2;2;
37290;PMS5003;23175;-33.706;151.094;2022-08-03T00:26:46;0;0;
37290;PMS5003;23175;-33.706;151.094;2022-08-03T00:29:16;4;2;
37290;PMS5003;23175;-33.706;151.094;2022-08-03T00:31:47;3;1;
37290;PMS5003;23175;-33.706;151.094;2022-08-03T00:34:17;1;1;
37290;PMS5003;23175;-33.706;151.094;2022-08-03T00:36:47;4;2;
37290;PMS5003;23175;-33.706;151.094;2022-08-03T00:39:18;2;2;
37290;PMS5003;23175;-33.706;151.094;2022-08-03T00:41:48;3;1;
37290;PMS5003;23175;-33.706;151.094;2022-08-03T00:44:18;2;2;
37290;PMS5003;23175;-33.706;151.094;2022-08-03T00:46:48;2;2;
37290;PMS5003;23175;-33.706;151.094;2022-08-03T00:49:20;3;3;
37290;PMS5003;23175;-33.706;151.094;2022-08-03T00:51:50;2;1;
37290;PMS5003;23175;-33.706;151.094;2022-08-03T00:54:20;3;2;
37290;PMS5003;23175;-33.706;151.094;2022-08-03T00:56:51;2;2;
37290;PMS5003;23175;-33.706;151.094;2022-08-03T00:59:22;2;2;
37290;PMS5003;23175;-33.706;151.094;2022-08-03T01:01:52;1;1;
37290;PMS5003;23175;-33.706;151.094;2022-08-03T01:04:22;1;1;
37290;PMS5003;23175;-33.706;151.094;2022-08-03T01:06:54;2;2;
37290;PMS5003;23175;-33.706;151.094;2022-08-03T01:09:32;1;1;
37290;PMS5003;23175;-33.706;151.094;2022-08-03T01:12:09;0;0;
37290;PMS5003;23175;-33.706;151.094;2022-08-03T01:14:50;1;1;
37290;PMS5003;23175;-33.706;151.094;2022-08-03T01:17:27;0;0;
37290;PMS5003;23175;-33.706;151.094;2022-08-03T01:20:05;1;1;
37290;PMS5003;23175;-33.706;151.094;2022-08-03T01:22:43;1;1;
37290;PMS5003;23175;-33.706;151.094;2022-08-03T01:25:42;2;2;
37290;PMS5003;23175;-33.706;151.094;2022-08-03T01:28:32;2;1;
37290;PMS5003;23175;-33.706;151.094;2022-08-03T01:31:17;1;1;
37290;PMS5003;23175;-33.706;151.094;2022-08-03T01:33:51;1;1;
37290;PMS5003;23175;-33.706;151.094;2022-08-03T01:36:28;2;2;
37290;PMS5003;23175;-33.706;151.094;2022-08-03T01:39:01;3;1;
37290;PMS5003;23175;-33.706;151.094;2022-08-03T01:41:33;1;1;
37290;PMS5003;23175;-33.706;151.094;2022-08-03T01:44:07;0;0;
37290;PMS5003;23175;-33.706;151.094;2022-08-03T01:46:38;3;1;
37290;PMS5003;23175;-33.706;151.094;2022-08-03T01:49:10;6;4;
37290;PMS5003;23175;-33.706;151.094;2022-08-03T01:51:41;0;0;
37290;PMS5003;23175;-33.706;151.094;2022-08-03T01:54:14;0;0;
37290;PMS5003;23175;-33.706;151.094;2022-08-03T01:56:46;2;2;
37290;PMS5003;23175;-33.706;151.094;2022-08-03T01:59:18;2;2;
37290;PMS5003;23175;-33.706;151.094;2022-08-03T02:01:49;1;1;
37290;PMS5003;23175;-33.706;151.094;2022-08-03T02:04:20;4;1;
37290;PMS5003;23175;-33.706;151.094;2022-08-03T02:06:52;1;1;
37290;PMS5003;23175;-33.706;151.094;2022-08-03T02:09:23;1;0;
37290;PMS5003;23175;-33.706;151.094;2022-08-03T02:11:55;2;2;
37290;PMS5003;23175;-33.706;151.094;2022-08-03T02:14:27;1;1;
37290;PMS5003;23175;-33.706;151.094;2022-08-03T02:16:57;2;2;
37290;PMS5003;23175;-33.706;151.094;2022-08-03T02:19:28;2;1;
37290;PMS5003;23175;-33.706;151.094;2022-08-03T02:22:00;1;1;
37290;PMS5003;23175;-33.706;151.094;2022-08-03T02:24:31;1;1;
37290;PMS5003;23175;-33.706;151.094;2022-08-03T02:27:02;2;2;
37290;PMS5003;23175;-33.706;151.094;2022-08-03T02:29:37;0;0;
37290;PMS5003;23175;-33.706;151.094;2022-08-03T02:32:10;2;2;
37290;PMS5003;23175;-33.706;151.094;2022-08-03T02:34:44;2;1;
37290;PMS5003;23175;-33.706;151.094;2022-08-03T02:37:18;2;2;
37290;PMS5003;23175;-33.706;151.094;2022-08-03T02:39:53;1;1;
37290;PMS5003;23175;-33.706;151.094;2022-08-03T02:42:29;2;2;
37290;PMS5003;23175;-33.706;151.094;2022-08-03T02:45:02;1;1;
37290;PMS5003;23175;-33.706;151.094;2022-08-03T02:47:36;1;1;
37290;PMS5003;23175;-33.706;151.094;2022-08-03T02:50:09;0;0;
37290;PMS5003;23175;-33.706;151.094;2022-08-03T02:52:40;1;1;
37290;PMS5003;23175;-33.706;151.094;2022-08-03T02:55:12;1;1;
37290;PMS5003;23175;-33.706;151.094;2022-08-03T02:57:45;0;0;
37290;PMS5003;23175;-33.706;151.094;2022-08-03T03:00:17;1;1;
37290;PMS5003;23175;-33.706;151.094;2022-08-03T03:02:48;3;0;
37290;PMS5003;23175;-33.706;151.094;2022-08-03T03:05:19;1;1;
37290;PMS5003;23175;-33.706;151.094;2022-08-03T03:07:49;1;1;
37290;PMS5003;23175;-33.706;151.094;2022-08-03T03:10:20;2;2;
37290;PMS5003;23175;-33.706;151.094;2022-08-03T03:12:53;1;1;
37290;PMS5003;23175;-33.706;151.094;2022-08-03T03:15:25;3;1;
37290;PMS5003;23175;-33.706;151.094;2022-08-03T03:17:56;2;2;
37290;PMS5003;23175;-33.706;151.094;2022-08-03T03:20:28;2;2;
37290;PMS5003;23175;-33.706;151.094;2022-08-03T03:23:00;1;1;
37290;PMS5003;23175;-33.706;151.094;2022-08-03T03:25:31;1;1;
37290;PMS5003;23175;-33.706;151.094;2022-08-03T03:28:02;1;1;
37290;PMS5003;23175;-33.706;151.094;2022-08-03T03:30:32;1;1;
37290;PMS5003;23175;-33.706;151.094;2022-08-03T03:33:02;2;2;
37290;PMS5003;23175;-33.706;151.094;2022-08-03T03:35:32;2;1;
37290;PMS5003;23175;-33.706;151.094;2022-08-03T03:38:03;1;1;
37290;PMS5003;23175;-33.706;151.094;2022-08-03T03:40:34;1;1;
37290;PMS5003;23175;-33.706;151.094;2022-08-03T03:43:06;1;1;
37290;PMS5003;23175;-33.706;151.094;2022-08-03T03:45:37;2;2;
37290;PMS5003;23175;-33.706;151.094;2022-08-03T03:48:09;0;0;
37290;PMS5003;23175;-33.706;151.094;2022-08-03T03:50:39;2;1;
37290;PMS5003;23175;-33.706;151.094;2022-08-03T03:53:11;0;0;
37290;PMS5003;23175;-33.706;151.094;2022-08-03T03:55:40;2;2;
37290;PMS5003;23175;-33.706;151.094;2022-08-03T03:58:10;2;2;
37290;PMS5003;23175;-33.706;151.094;2022-08-03T04:00:41;1;1;
37290;PMS5003;23175;-33.706;151.094;2022-08-03T04:03:11;0;0;
37290;PMS5003;23175;-33.706;151.094;2022-08-03T04:05:41;0;0;
37290;PMS5003;23175;-33.706;151.094;2022-08-03T04:08:12;1;1;
37290;PMS5003;23175;-33.706;151.094;2022-08-03T04:10:47;1;1;
37290;PMS5003;23175;-33.706;151.094;2022-08-03T04:13:28;1;1;
37290;PMS5003;23175;-33.706;151.094;2022-08-03T04:16:00;2;2;
37290;PMS5003;23175;-33.706;151.094;2022-08-03T04:18:33;2;2;
37290;PMS5003;23175;-33.706;151.094;2022-08-03T04:21:06;0;0;
37290;PMS5003;23175;-33.706;151.094;2022-08-03T04:23:40;2;2;
37290;PMS5003;23175;-33.706;151.094;2022-08-03T04:26:14;1;1;
37290;PMS5003;23175;-33.706;151.094;2022-08-03T04:28:46;2;2;
37290;PMS5003;23175;-33.706;151.094;2022-08-03T04:31:20;3;1;
37290;PMS5003;23175;-33.706;151.094;2022-08-03T04:33:51;1;1;
37290;PMS5003;23175;-33.706;151.094;2022-08-03T04:36:22;2;2;
37290;PMS5003;23175;-33.706;151.094;2022-08-03T04:38:58;1;1;
37290;PMS5003;23175;-33.706;151.094;2022-08-03T04:41:30;3;1;
37290;PMS5003;23175;-33.706;151.094;2022-08-03T04:44:02;0;0;
37290;PMS5003;23175;-33.706;151.094;2022-08-03T04:46:34;1;1;
37290;PMS5003;23175;-33.706;151.094;2022-08-03T04:49:06;2;2;
37290;PMS5003;23175;-33.706;151.094;2022-08-03T04:51:36;1;0;
37290;PMS5003;23175;-33.706;151.094;2022-08-03T04:54:06;1;1;
37290;PMS5003;23175;-33.706;151.094;2022-08-03T04:56:41;4;2;
37290;PMS5003;23175;-33.706;151.094;2022-08-03T04:59:11;1;1;
37290;PMS5003;23175;-33.706;151.094;2022-08-03T05:01:41;3;3;
37290;PMS5003;23175;-33.706;151.094;2022-08-03T05:04:11;1;1;
37290;PMS5003;23175;-33.706;151.094;2022-08-03T05:06:41;1;1;
37290;PMS5003;23175;-33.706;151.094;2022-08-03T05:09:11;2;2;
37290;PMS5003;23175;-33.706;151.094;2022-08-03T05:11:41;2;2;
37290;PMS5003;23175;-33.706;151.094;2022-08-03T05:14:11;2;2;
37290;PMS5003;23175;-33.706;151.094;2022-08-03T05:16:41;3;1;
37290;PMS5003;23175;-33.706;151.094;2022-08-03T05:19:13;3;1;
37290;PMS5003;23175;-33.706;151.094;2022-08-03T05:21:43;2;0;
37290;PMS5003;23175;-33.706;151.094;2022-08-03T05:24:13;4;2;
37290;PMS5003;23175;-33.706;151.094;2022-08-03T05:26:43;1;1;
37290;PMS5003;23175;-33.706;151.094;2022-08-03T05:29:13;1;1;
37290;PMS5003;23175;-33.706;151.094;2022-08-03T05:31:43;2;2;
37290;PMS5003;23175;-33.706;151.094;2022-08-03T05:34:13;1;1;
37290;PMS5003;23175;-33.706;151.094;2022-08-03T05:36:43;1;1;
37290;PMS5003;23175;-33.706;151.094;2022-08-03T05:39:13;4;2;
37290;PMS5003;23175;-33.706;151.094;2022-08-03T05:41:43;3;2;
37290;PMS5003;23175;-33.706;151.094;2022-08-03T05:44:14;2;1;
37290;PMS5003;23175;-33.706;151.094;2022-08-03T05:46:44;0;0;
37290;PMS5003;23175;-33.706;151.094;2022-08-03T05:49:14;3;1;
37290;PMS5003;23175;-33.706;151.094;2022-08-03T05:51:44;1;1;
37290;PMS5003;23175;-33.706;151.094;2022-08-03T05:54:14;3;1;
37290;PMS5003;23175;-33.706;151.094;2022-08-03T05:56:44;4;1;
37290;PMS5003;23175;-33.706;151.094;2022-08-03T05:59:14;1;1;
37290;PMS5003;23175;-33.706;151.094;2022-08-03T06:01:45;1;1;
37290;PMS5003;23175;-33.706;151.094;2022-08-03T06:04:15;1;1;
37290;PMS5003;23175;-33.706;151.094;2022-08-03T06:06:45;1;1;
37290;PMS5003;23175;-33.706;151.094;2022-08-03T06:09:15;4;3;
37290;PMS5003;23175;-33.706;151.094;2022-08-03T06:11:45;2;2;
37290;PMS5003;23175;-33.706;151.094;2022-08-03T06:14:15;1;1;
37290;PMS5003;23175;-33.706;151.094;2022-08-03T06:16:46;3;1;
37290;PMS5003;23175;-33.706;151.094;2022-08-03T06:19:16;2;2;
37290;PMS5003;23175;-33.706;151.094;2022-08-03T06:21:46;3;1;
37290;PMS5003;23175;-33.706;151.094;2022-08-03T06:24:16;1;1;
37290;PMS5003;23175;-33.706;151.094;2022-08-03T06:26:46;1;1;
37290;PMS5003;23175;-33.706;151.094;2022-08-03T06:29:16;0;0;
37290;PMS5003;23175;-33.706;151.094;2022-08-03T06:31:46;2;2;
37290;PMS5003;23175;-33.706;151.094;2022-08-03T06:34:16;5;3;
37290;PMS5003;23175;-33.706;151.094;2022-08-03T06:36:47;1;1;
37290;PMS5003;23175;-33.706;151.094;2022-08-03T06:39:17;3;3;
37290;PMS5003;23175;-33.706;151.094;2022-08-03T06:41:47;1;1;
37290;PMS5003;23175;-33.706;151.094;2022-08-03T06:44:17;2;2;
37290;PMS5003;23175;-33.706;151.094;2022-08-03T06:46:47;2;2;
37290;PMS5003;23175;-33.706;151.094;2022-08-03T06:49:17;2;2;
37290;PMS5003;23175;-33.706;151.094;2022-08-03T06:51:48;3;3;
37290;PMS5003;23175;-33.706;151.094;2022-08-03T06:54:17;2;2;
37290;PMS5003;23175;-33.706;151.094;2022-08-03T06:56:48;1;1;
37290;PMS5003;23175;-33.706;151.094;2022-08-03T06:59:18;1;1;
37290;PMS5003;23175;-33.706;151.094;2022-08-03T07:01:49;3;3;
37290;PMS5003;23175;-33.706;151.094;2022-08-03T07:04:19;3;2;
37290;PMS5003;23175;-33.706;151.094;2022-08-03T07:06:49;2;2;
37290;PMS5003;23175;-33.706;151.094;2022-08-03T07:09:19;3;3;
37290;PMS5003;23175;-33.706;151.094;2022-08-03T07:11:51;3;3;
37290;PMS5003;23175;-33.706;151.094;2022-08-03T07:14:21;3;1;
37290;PMS5003;23175;-33.706;151.094;2022-08-03T07:22:09;2;2;
37290;PMS5003;23175;-33.706;151.094;2022-08-03T07:24:39;5;3;
37290;PMS5003;23175;-33.706;151.094;2022-08-03T07:27:09;4;2;
37290;PMS5003;23175;-33.706;151.094;2022-08-03T07:29:39;3;3;
37290;PMS5003;23175;-33.706;151.094;2022-08-03T07:32:10;1;1;
37290;PMS5003;23175;-33.706;151.094;2022-08-03T07:34:40;3;3;
37290;PMS5003;23175;-33.706;151.094;2022-08-03T07:37:10;3;3;
37290;PMS5003;23175;-33.706;151.094;2022-08-03T07:39:40;2;2;
37290;PMS5003;23175;-33.706;151.094;2022-08-03T07:42:10;3;3;
37290;PMS5003;23175;-33.706;151.094;2022-08-03T07:44:40;2;1;
37290;PMS5003;23175;-33.706;151.094;2022-08-03T07:47:10;2;2;
37290;PMS5003;23175;-33.706;151.094;2022-08-03T07:49:44;3;3;
37290;PMS5003;23175;-33.706;151.094;2022-08-03T07:52:14;3;3;
37290;PMS5003;23175;-33.706;151.094;2022-08-03T07:54:44;4;3;
37290;PMS5003;23175;-33.706;151.094;2022-08-03T07:57:15;2;2;
37290;PMS5003;23175;-33.706;151.094;2022-08-03T07:59:46;3;3;
37290;PMS5003;23175;-33.706;151.094;2022-08-03T08:02:16;4;2;
37290;PMS5003;23175;-33.706;151.094;2022-08-03T08:04:46;3;3;
37290;PMS5003;23175;-33.706;151.094;2022-08-03T08:07:16;4;3;
37290;PMS5003;23175;-33.706;151.094;2022-08-03T08:09:46;3;3;
37290;PMS5003;23175;-33.706;151.094;2022-08-03T08:12:16;3;3;
37290;PMS5003;23175;-33.706;151.094;2022-08-03T08:14:46;4;3;
37290;PMS5003;23175;-33.706;151.094;2022-08-03T08:17:17;3;3;
37290;PMS5003;23175;-33.706;151.094;2022-08-03T08:19:47;5;3;
37290;PMS5003;23175;-33.706;151.094;2022-08-03T08:22:17;6;3;
37290;PMS5003;23175;-33.706;151.094;2022-08-03T08:24:47;3;3;
37290;PMS5003;23175;-33.706;151.094;2022-08-03T08:27:17;5;4;
37290;PMS5003;23175;-33.706;151.094;2022-08-03T08:29:47;2;2;
37290;PMS5003;23175;-33.706;151.094;2022-08-03T08:32:18;3;3;
37290;PMS5003;23175;-33.706;151.094;2022-08-03T08:34:48;4;4;
37290;PMS5003;23175;-33.706;151.094;2022-08-03T08:37:18;4;4;
37290;PMS5003;23175;-33.706;151.094;2022-08-03T08:39:48;2;2;
37290;PMS5003;23175;-33.706;151.094;2022-08-03T08:42:18;4;4;
37290;PMS5003;23175;-33.706;151.094;2022-08-03T08:44:49;4;4;
37290;PMS5003;23175;-33.706;151.094;2022-08-03T08:47:18;7;7;
37290;PMS5003;23175;-33.706;151.094;2022-08-03T08:49:52;5;3;
37290;PMS5003;23175;-33.706;151.094;2022-08-03T08:52:25;4;2;
37290;PMS5003;23175;-33.706;151.094;2022-08-03T08:54:56;6;4;
37290;PMS5003;23175;-33.706;151.094;2022-08-03T08:57:31;5;5;
37290;PMS5003;23175;-33.706;151.094;2022-08-03T09:00:04;3;3;
37290;PMS5003;23175;-33.706;151.094;2022-08-03T09:02:36;5;3;
37290;PMS5003;23175;-33.706;151.094;2022-08-03T09:05:07;3;3;
37290;PMS5003;23175;-33.706;151.094;2022-08-03T09:07:39;10;10;
37290;PMS5003;23175;-33.706;151.094;2022-08-03T09:10:10;4;4;
37290;PMS5003;23175;-33.706;151.094;2022-08-03T09:12:42;6;4;
37290;PMS5003;23175;-33.706;151.094;2022-08-03T09:15:18;8;8;
37290;PMS5003;23175;-33.706;151.094;2022-08-03T09:17:51;5;3;
37290;PMS5003;23175;-33.706;151.094;2022-08-03T09:20:23;6;4;
37290;PMS5003;23175;-33.706;151.094;2022-08-03T09:22:56;5;3;
37290;PMS5003;23175;-33.706;151.094;2022-08-03T09:25:31;5;5;
37290;PMS5003;23175;-33.706;151.094;2022-08-03T09:28:06;4;4;
37290;PMS5003;23175;-33.706;151.094;2022-08-03T09:30:37;7;5;
37290;PMS5003;23175;-33.706;151.094;2022-08-03T09:33:09;2;2;
37290;PMS5003;23175;-33.706;151.094;2022-08-03T09:35:42;3;3;
37290;PMS5003;23175;-33.706;151.094;2022-08-03T09:38:14;3;3;
37290;PMS5003;23175;-33.706;151.094;2022-08-03T09:40:50;3;3;
37290;PMS5003;23175;-33.706;151.094;2022-08-03T09:43:21;3;3;
37290;PMS5003;23175;-33.706;151.094;2022-08-03T09:45:51;6;5;
37290;PMS5003;23175;-33.706;151.094;2022-08-03T09:48:31;6;6;
37290;PMS5003;23175;-33.706;151.094;2022-08-03T09:51:01;8;6;
37290;PMS5003;23175;-33.706;151.094;2022-08-03T09:53:32;6;4;
37290;PMS5003;23175;-33.706;151.094;2022-08-03T09:56:11;4;4;
37290;PMS5003;23175;-33.706;151.094;2022-08-03T09:58:44;5;5;
37290;PMS5003;23175;-33.706;151.094;2022-08-03T10:01:15;8;5;
37290;PMS5003;23175;-33.706;151.094;2022-08-03T10:03:46;3;2;
37290;PMS5003;23175;-33.706;151.094;2022-08-03T10:06:26;4;4;
37290;PMS5003;23175;-33.706;151.094;2022-08-03T10:09:38;3;3;
37290;PMS5003;23175;-33.706;151.094;2022-08-03T10:12:24;5;3;
37290;PMS5003;23175;-33.706;151.094;2022-08-03T10:14:55;5;5;
37290;PMS5003;23175;-33.706;151.094;2022-08-03T10:17:27;5;4;
37290;PMS5003;23175;-33.706;151.094;2022-08-03T10:19:57;2;2;
37290;PMS5003;23175;-33.706;151.094;2022-08-03T10:22:28;3;3;
37290;PMS5003;23175;-33.706;151.094;2022-08-03T10:25:03;4;4;
37290;PMS5003;23175;-33.706;151.094;2022-08-03T10:27:35;4;4;
37290;PMS5003;23175;-33.706;151.094;2022-08-03T10:30:08;3;3;
37290;PMS5003;23175;-33.706;151.094;2022-08-03T10:32:40;3;3;
37290;PMS5003;23175;-33.706;151.094;2022-08-03T10:35:16;4;4;
37290;PMS5003;23175;-33.706;151.094;2022-08-03T10:37:51;5;5;
37290;PMS5003;23175;-33.706;151.094;2022-08-03T10:40:25;7;4;
37290;PMS5003;23175;-33.706;151.094;2022-08-03T10:42:59;5;4;
37290;PMS5003;23175;-33.706;151.094;2022-08-03T10:45:35;4;4;
37290;PMS5003;23175;-33.706;151.094;2022-08-03T10:48:08;5;5;
37290;PMS5003;23175;-33.706;151.094;2022-08-03T10:50:38;3;3;
37290;PMS5003;23175;-33.706;151.094;2022-08-03T10:53:09;6;3;
37290;PMS5003;23175;-33.706;151.094;2022-08-03T10:55:41;7;5;
37290;PMS5003;23175;-33.706;151.094;2022-08-03T10:58:12;5;5;
37290;PMS5003;23175;-33.706;151.094;2022-08-03T11:00:48;5;5;
37290;PMS5003;23175;-33.706;151.094;2022-08-03T11:03:18;4;4;
37290;PMS5003;23175;-33.706;151.094;2022-08-03T11:05:48;8;7;
37290;PMS5003;23175;-33.706;151.094;2022-08-03T11:08:21;6;4;
37290;PMS5003;23175;-33.706;151.094;2022-08-03T11:10:55;6;4;
37290;PMS5003;23175;-33.706;151.094;2022-08-03T11:13:27;6;4;
37290;PMS5003;23175;-33.706;151.094;2022-08-03T11:16:01;4;4;
37290;PMS5003;23175;-33.706;151.094;2022-08-03T11:18:54;4;4;
37290;PMS5003;23175;-33.706;151.094;2022-08-03T11:21:58;4;4;
37290;PMS5003;23175;-33.706;151.094;2022-08-03T11:25:00;4;4;
37290;PMS5003;23175;-33.706;151.094;2022-08-03T11:27:31;7;5;
37290;PMS5003;23175;-33.706;151.094;2022-08-03T11:30:03;3;3;
37290;PMS5003;23175;-33.706;151.094;2022-08-03T11:32:57;4;4;
37290;PMS5003;23175;-33.706;151.094;2022-08-03T11:35:28;5;4;
37290;PMS5003;23175;-33.706;151.094;2022-08-03T11:38:04;5;5;
37290;PMS5003;23175;-33.706;151.094;2022-08-03T11:40:37;4;3;
37290;PMS5003;23175;-33.706;151.094;2022-08-03T11:43:09;5;3;
37290;PMS5003;23175;-33.706;151.094;2022-08-03T11:46:14;4;4;
37290;PMS5003;23175;-33.706;151.094;2022-08-03T11:48:45;6;3;
37290;PMS5003;23175;-33.706;151.094;2022-08-03T11:51:20;5;5;
37290;PMS5003;23175;-33.706;151.094;2022-08-03T11:53:52;5;5;
37290;PMS5003;23175;-33.706;151.094;2022-08-03T11:56:23;5;3;
37290;PMS5003;23175;-33.706;151.094;2022-08-03T11:58:54;9;9;
37290;PMS5003;23175;-33.706;151.094;2022-08-03T12:01:25;5;5;
37290;PMS5003;23175;-33.706;151.094;2022-08-03T12:03:55;6;6;
37290;PMS5003;23175;-33.706;151.094;2022-08-03T12:06:32;5;5;
37290;PMS5003;23175;-33.706;151.094;2022-08-03T12:09:14;6;5;
37290;PMS5003;23175;-33.706;151.094;2022-08-03T12:11:47;10;5;
37290;PMS5003;23175;-33.706;151.094;2022-08-03T12:14:18;5;5;
37290;PMS5003;23175;-33.706;151.094;2022-08-03T12:16:48;7;4;
37290;PMS5003;23175;-33.706;151.094;2022-08-03T12:19:18;8;5;
37290;PMS5003;23175;-33.706;151.094;2022-08-03T12:21:49;8;6;
37290;PMS5003;23175;-33.706;151.094;2022-08-03T12:24:19;6;6;
37290;PMS5003;23175;-33.706;151.094;2022-08-03T12:26:49;9;6;
37290;PMS5003;23175;-33.706;151.094;2022-08-03T12:29:20;3;3;
37290;PMS5003;23175;-33.706;151.094;2022-08-03T12:31:49;5;5;
37290;PMS5003;23175;-33.706;151.094;2022-08-03T12:34:20;4;4;
37290;PMS5003;23175;-33.706;151.094;2022-08-03T12:36:50;7;6;
37290;PMS5003;23175;-33.706;151.094;2022-08-03T12:39:22;4;4;
37290;PMS5003;23175;-33.706;151.094;2022-08-03T12:41:58;8;5;
37290;PMS5003;23175;-33.706;151.094;2022-08-03T12:44:29;7;5;
37290;PMS5003;23175;-33.706;151.094;2022-08-03T12:47:00;7;5;
37290;PMS5003;23175;-33.706;151.094;2022-08-03T12:49:43;7;5;
37290;PMS5003;23175;-33.706;151.094;2022-08-03T12:52:14;7;6;
37290;PMS5003;23175;-33.706;151.094;2022-08-03T12:54:53;6;5;
37290;PMS5003;23175;-33.706;151.094;2022-08-03T12:57:24;7;7;
37290;PMS5003;23175;-33.706;151.094;2022-08-03T13:00:10;10;6;
37290;PMS5003;23175;-33.706;151.094;2022-08-03T13:02:42;6;6;
37290;PMS5003;23175;-33.706;151.094;2022-08-03T13:05:12;8;6;
37290;PMS5003;23175;-33.706;151.094;2022-08-03T13:07:43;7;6;
37290;PMS5003;23175;-33.706;151.094;2022-08-03T13:10:25;4;4;
37290;PMS5003;23175;-33.706;151.094;2022-08-03T13:12:57;5;5;
37290;PMS5003;23175;-33.706;151.094;2022-08-03T13:15:28;7;6;
37290;PMS5003;23175;-33.706;151.094;2022-08-03T13:17:59;7;5;
37290;PMS5003;23175;-33.706;151.094;2022-08-03T13:20:29;8;6;
37290;PMS5003;23175;-33.706;151.094;2022-08-03T13:22:59;7;5;
37290;PMS5003;23175;-33.706;151.094;2022-08-03T13:25:30;7;5;
37290;PMS5003;23175;-33.706;151.094;2022-08-03T13:28:00;7;6;
37290;PMS5003;23175;-33.706;151.094;2022-08-03T13:30:30;4;4;
37290;PMS5003;23175;-33.706;151.094;2022-08-03T13:33:00;6;6;
37290;PMS5003;23175;-33.706;151.094;2022-08-03T13:35:30;6;6;
37290;PMS5003;23175;-33.706;151.094;2022-08-03T13:38:00;9;7;
37290;PMS5003;23175;-33.706;151.094;2022-08-03T13:40:30;6;6;
37290;PMS5003;23175;-33.706;151.094;2022-08-03T13:43:01;6;6;
37290;PMS5003;23175;-33.706;151.094;2022-08-03T13:45:31;6;6;
37290;PMS5003;23175;-33.706;151.094;2022-08-03T13:48:01;5;5;
37290;PMS5003;23175;-33.706;151.094;2022-08-03T13:50:31;6;6;
37290;PMS5003;23175;-33.706;151.094;2022-08-03T13:53:01;6;6;
37290;PMS5003;23175;-33.706;151.094;2022-08-03T13:55:32;6;5;
37290;PMS5003;23175;-33.706;151.094;2022-08-03T13:58:02;5;5;
37290;PMS5003;23175;-33.706;151.094;2022-08-03T14:00:32;6;6;
37290;PMS5003;23175;-33.706;151.094;2022-08-03T14:03:02;7;7;
37290;PMS5003;23175;-33.706;151.094;2022-08-03T14:05:38;6;6;
37290;PMS5003;23175;-33.706;151.094;2022-08-03T14:08:09;10;5;
37290;PMS5003;23175;-33.706;151.094;2022-08-03T14:10:40;8;5;
37290;PMS5003;23175;-33.706;151.094;2022-08-03T14:13:11;9;8;
37290;PMS5003;23175;-33.706;151.094;2022-08-03T14:15:42;10;9;
37290;PMS5003;23175;-33.706;151.094;2022-08-03T14:18:12;11;8;
37290;PMS5003;23175;-33.706;151.094;2022-08-03T14:20:43;6;6;
37290;PMS5003;23175;-33.706;151.094;2022-08-03T14:23:13;6;6;
37290;PMS5003;23175;-33.706;151.094;2022-08-03T14:25:44;7;7;
37290;PMS5003;23175;-33.706;151.094;2022-08-03T14:28:13;8;7;
37290;PMS5003;23175;-33.706;151.094;2022-08-03T14:30:44;7;7;
37290;PMS5003;23175;-33.706;151.094;2022-08-03T14:33:19;5;5;
37290;PMS5003;23175;-33.706;151.094;2022-08-03T14:35:50;9;9;
37290;PMS5003;23175;-33.706;151.094;2022-08-03T14:38:21;6;4;
37290;PMS5003;23175;-33.706;151.094;2022-08-03T14:40:53;7;5;
37290;PMS5003;23175;-33.706;151.094;2022-08-03T14:43:23;13;10;
37290;PMS5003;23175;-33.706;151.094;2022-08-03T14:45:54;6;6;
37290;PMS5003;23175;-33.706;151.094;2022-08-03T14:48:24;8;7;
37290;PMS5003;23175;-33.706;151.094;2022-08-03T14:50:54;6;6;
37290;PMS5003;23175;-33.706;151.094;2022-08-03T14:53:24;5;5;
37290;PMS5003;23175;-33.706;151.094;2022-08-03T14:55:54;6;5;
37290;PMS5003;23175;-33.706;151.094;2022-08-03T14:58:25;8;5;
37290;PMS5003;23175;-33.706;151.094;2022-08-03T15:00:55;6;6;
37290;PMS5003;23175;-33.706;151.094;2022-08-03T15:03:25;7;6;
37290;PMS5003;23175;-33.706;151.094;2022-08-03T15:06:00;8;5;
37290;PMS5003;23175;-33.706;151.094;2022-08-03T15:08:31;8;7;
37290;PMS5003;23175;-33.706;151.094;2022-08-03T15:11:01;7;7;
37290;PMS5003;23175;-33.706;151.094;2022-08-03T15:13:31;6;6;
37290;PMS5003;23175;-33.706;151.094;2022-08-03T15:16:01;8;7;
37290;PMS5003;23175;-33.706;151.094;2022-08-03T15:18:32;6;6;
37290;PMS5003;23175;-33.706;151.094;2022-08-03T15:21:07;7;6;
37290;PMS5003;23175;-33.706;151.094;2022-08-03T15:23:36;7;7;
37290;PMS5003;23175;-33.706;151.094;2022-08-03T15:26:07;9;6;
37290;PMS5003;23175;-33.706;151.094;2022-08-03T15:28:37;6;6;
37290;PMS5003;23175;-33.706;151.094;2022-08-03T15:31:07;8;8;
37290;PMS5003;23175;-33.706;151.094;2022-08-03T15:33:37;11;7;
37290;PMS5003;23175;-33.706;151.094;2022-08-03T15:36:13;5;5;
37290;PMS5003;23175;-33.706;151.094;2022-08-03T15:38:43;9;6;
37290;PMS5003;23175;-33.706;151.094;2022-08-03T15:41:13;6;6;
37290;PMS5003;23175;-33.706;151.094;2022-08-03T15:43:44;10;6;
37290;PMS5003;23175;-33.706;151.094;2022-08-03T15:46:14;6;6;
37290;PMS5003;23175;-33.706;151.094;2022-08-03T15:48:45;6;6;
37290;PMS5003;23175;-33.706;151.094;2022-08-03T15:51:15;13;12;
37290;PMS5003;23175;-33.706;151.094;2022-08-03T15:53:45;6;6;
37290;PMS5003;23175;-33.706;151.094;2022-08-03T15:56:15;9;7;
37290;PMS5003;23175;-33.706;151.094;2022-08-03T15:58:46;8;7;
37290;PMS5003;23175;-33.706;151.094;2022-08-03T16:01:16;8;7;
37290;PMS5003;23175;-33.706;151.094;2022-08-03T16:03:47;8;6;
37290;PMS5003;23175;-33.706;151.094;2022-08-03T16:06:17;10;9;
37290;PMS5003;23175;-33.706;151.094;2022-08-03T16:08:47;8;8;
37290;PMS5003;23175;-33.706;151.094;2022-08-03T16:11:17;7;5;
37290;PMS5003;23175;-33.706;151.094;2022-08-03T16:13:47;8;6;
37290;PMS5003;23175;-33.706;151.094;2022-08-03T16:16:17;9;6;
37290;PMS5003;23175;-33.706;151.094;2022-08-03T16:18:48;7;6;
37290;PMS5003;23175;-33.706;151.094;2022-08-03T16:21:18;8;5;
37290;PMS5003;23175;-33.706;151.094;2022-08-03T16:23:49;6;4;
37290;PMS5003;23175;-33.706;151.094;2022-08-03T16:26:19;5;4;
37290;PMS5003;23175;-33.706;151.094;2022-08-03T16:28:49;6;4;
37290;PMS5003;23175;-33.706;151.094;2022-08-03T16:31:19;5;5;
37290;PMS5003;23175;-33.706;151.094;2022-08-03T16:33:50;8;8;
37290;PMS5003;23175;-33.706;151.094;2022-08-03T16:36:21;8;6;
37290;PMS5003;23175;-33.706;151.094;2022-08-03T16:38:51;5;5;